• Join FlightAware (Why Join?)
  • Login
  • US Flag 
07:18PM EDT


 

Airport Tracker/Info


-or-


 

Live Flight TrackerFlight Track Log ✈ CES5388 ✈ 22-May-2013 ✈ ZGKL / KWL - ZSOF / HFE

Flight Track Log - Related Links

Times and Time Zones

All times are in EDT time to prevent confusion due to time zone crossing. See the CES5388 flight status page for this flight to view local times or setup timezone preferences in your user account.

Time Position Orientation Groundspeed Altitude Reporting Facility
EDT Latitude Longitude Course Direction KTS MPH feet Rate Location/Type
10:49AM 25.9827 110.8209 43° Northeast  Level Estimated
10:50AM 26.0589 110.8997 43° Northeast  Level Estimated
10:51AM 26.1351 110.9785 43° Northeast  Level Estimated
10:52AM 26.2112 111.0574 43° Northeast  Level Estimated
10:53AM 26.2873 111.1365 43° Northeast  Level Estimated
10:54AM 26.3633 111.2156 43° Northeast  Level Estimated
10:55AM 26.4394 111.2948 43° Northeast  Level Estimated
10:56AM 26.5153 111.3742 43° Northeast  Level Estimated
10:57AM 26.5912 111.4536 43° Northeast  Level Estimated
10:58AM 26.6671 111.5332 43° Northeast  Level Estimated
10:59AM 26.7430 111.6128 43° Northeast  Level Estimated
11:00AM 26.8188 111.6926 43° Northeast  Level Estimated
11:01AM 26.8945 111.7725 43° Northeast  Level Estimated
11:02AM 26.9702 111.8525 43° Northeast  Level Estimated
11:03AM 27.0458 111.9326 43° Northeast  Level Estimated
11:04AM 27.1215 112.0128 43° Northeast  Level Estimated
11:05AM 27.1970 112.0931 43° Northeast  Level Estimated
11:06AM 27.2725 112.1735 43° Northeast  Level Estimated
11:07AM 27.3480 112.2540 43° Northeast  Level Estimated
11:08AM 27.4234 112.3347 43° Northeast  Level Estimated
11:09AM 27.4988 112.4154 44° Northeast  Level Estimated
11:10AM 27.5741 112.4963 44° Northeast  Level Estimated
11:11AM 27.6494 112.5772 44° Northeast  Level Estimated
11:12AM 27.7246 112.6583 44° Northeast  Level Estimated
11:13AM 27.7998 112.7395 44° Northeast  Level Estimated
11:14AM 27.8750 112.8208 44° Northeast  Level Estimated
11:15AM 27.9501 112.9022 44° Northeast  Level Estimated
11:16AM 28.0251 112.9838 44° Northeast  Level Estimated
11:17AM 28.1001 113.0654 44° Northeast  Level Estimated
11:18AM 28.1751 113.1472 44° Northeast  Level Estimated
11:19AM 28.2500 113.2290 44° Northeast  Level Estimated
11:20AM 28.3248 113.3110 44° Northeast  Level Estimated
11:21AM 28.3996 113.3931 44° Northeast  Level Estimated
11:22AM 28.4744 113.4753 44° Northeast  Level Estimated
11:23AM 28.5491 113.5577 44° Northeast  Level Estimated
11:24AM 28.6237 113.6401 44° Northeast  Level Estimated
11:25AM 28.6983 113.7227 44° Northeast  Level Estimated
11:26AM 28.7729 113.8054 44° Northeast  Level Estimated
11:27AM 28.8474 113.8882 44° Northeast  Level Estimated
11:28AM 28.9218 113.9711 44° Northeast  Level Estimated
11:29AM 28.9962 114.0542 44° Northeast  Level Estimated
11:30AM 29.0706 114.1373 44° Northeast  Level Estimated
11:31AM 29.1449 114.2206 44° Northeast  Level Estimated
11:32AM 29.2191 114.3040 44° Northeast  Level Estimated
11:33AM 29.2933 114.3875 44° Northeast  Level Estimated
11:34AM 29.3675 114.4712 45° Northeast  Level Estimated
11:35AM 29.4416 114.5549 45° Northeast  Level Estimated
11:36AM 29.5156 114.6388 45° Northeast  Level Estimated
11:37AM 29.5896 114.7228 45° Northeast  Level Estimated
11:38AM 29.6635 114.8070 45° Northeast  Level Estimated
11:39AM 29.7374 114.8913 45° Northeast  Level Estimated
11:40AM 29.8112 114.9756 45° Northeast  Level Estimated
11:41AM 29.8850 115.0601 45° Northeast  Level Estimated
11:42AM 29.9587 115.1448 45° Northeast  Level Estimated
11:43AM 30.0324 115.2295 45° Northeast  Level Estimated
11:44AM 30.1060 115.3144 45° Northeast  Level Estimated
11:45AM 30.1796 115.3994 45° Northeast  Level Estimated
11:46AM 30.2531 115.4846 45° Northeast  Level Estimated
11:47AM 30.3265 115.5698 45° Northeast  Level Estimated
11:48AM 30.3999 115.6552 45° Northeast  Level Estimated
11:49AM 30.4732 115.7408 45° Northeast  Level Estimated
11:50AM 30.5465 115.8264 45° Northeast  Level Estimated
11:51AM 30.6197 115.9122 45° Northeast  Level Estimated
11:52AM 30.6929 115.9981 45° Northeast  Level Estimated
11:53AM 30.7660 116.0841 45° Northeast  Level Estimated
11:54AM 30.8391 116.1703 45° Northeast  Level Estimated
11:55AM 30.9121 116.2566 45° Northeast  Level Estimated
11:56AM 30.9850 116.3430 45° Northeast  Level Estimated
11:57AM 31.0579 116.4296 45° Northeast  Level Estimated
11:58AM 31.1307 116.5163 46° Northeast  Level Estimated
11:59AM 31.2035 116.6031 46° Northeast  Level Estimated
12:00PM 31.2762 116.6901 46° Northeast  Level Estimated
12:01PM 31.3488 116.7772 46° Northeast  Level Estimated
12:02PM 31.4214 116.8644 46° Northeast  Level Estimated
12:03PM 31.4940 116.9518 46° Northeast  Level Estimated
12:04PM 31.5664 117.0393 46° Northeast  Level Estimated
12:05PM 31.6388 117.1270 46° Northeast  Level Estimated
12:06PM 31.7112 117.2148 46° Northeast  Level Estimated
12:07PM 31.7800 117.2984 46° Northeast  Level Estimated
12:08PM 31.7800 117.2984 254° West  Level Estimated
12:09PM 31.7800 117.2984 254° West  Level Estimated
12:10PM 31.7800 117.2984 254° West  Level Estimated
12:11PM 31.7800 117.2984 254° West  Level Estimated
12:12PM 31.7800 117.2984 254° West  Level Estimated
12:13PM 31.7800 117.2984 254° West  Level Estimated